• Join FlightAware (Why Join?)
  • Login
  • US Flag 
09:23AM EST


 

Airport Tracker/Info


-or-


 

Live Flight TrackerFlight Track Log ✈ UAL6148 ✈ 21-Apr-2013 ✈ KORD - KLNK

Flight Track Log - Related Links

Times and Time Zones

All times are in EDT time to prevent confusion due to time zone crossing. See the UAL6148 flight status page for this flight to view local times or setup timezone preferences in your user account.

Time Position Orientation Groundspeed Altitude Reporting Facility
EDT Latitude Longitude Course Direction KTS MPH feet Rate Location/Type
06:40PM 41.9167 -87.9333 224° Southwest 180 207 3,400  Level Chicago TRACON
06:42PM 41.8386 -88.0361 224° Southwest 247 284 7,500 2,340 Climbing Chicago Center
06:43PM 41.8361 -88.1333 268° West 260 299 10,200 2,520 Climbing Chicago Center
06:44PM 41.8469 -88.2344 278° West 275 316 12,800 1,920 Climbing Chicago Center
06:45PM 41.8475 -88.3444 270° West 300 345 14,200 1,860 Climbing Chicago Center
06:46PM 41.8375 -88.4889 265° West 325 374 16,700 1,920 Climbing Chicago Center
06:47PM 41.8306 -88.6097 266° West 328 377 18,200 1,500 Climbing Chicago Center
06:48PM 41.8222 -88.7353 265° West 338 389 19,800 1,500 Climbing Chicago Center
06:49PM 41.8139 -88.8650 265° West 350 403 21,300 1,500 Climbing Chicago Center
06:50PM 41.8033 -88.9983 264° West 360 414 22,900 1,500 Climbing Chicago Center
06:51PM 41.7903 -89.1589 264° West 365 420 24,500 1,440 Climbing Chicago Center
06:52PM 41.7789 -89.2986 264° West 376 433 25,900 1,200 Climbing Chicago Center
06:53PM 41.7814 -89.4386 271° West 377 434 27,000 960 Climbing Chicago Center
06:54PM 41.7903 -89.5875 275° West 373 429 28,000 960 Climbing Chicago Center
06:55PM 41.8006 -89.7297 276° West 380 437 29,000 960 Climbing Chicago Center
06:57PM 41.8089 -89.8903 274° West 385 443 30,000 900 Climbing Chicago Center
06:58PM 41.8208 -90.0169 277° West 388 447 30,900 840 Climbing Chicago Center
06:59PM 41.8300 -90.1611 275° West 389 448 31,800 480 Climbing Chicago Center
07:00PM 41.8339 -90.3386 272° West 397 457 32,000 60 Climbing Chicago Center
07:01PM 41.8322 -90.4931 269° West 410 472 32,000 120 Level Chicago Center
07:02PM 41.8314 -90.6517 270° West 422 486 32,300 780 Climbing Chicago Center
07:03PM 41.8300 -90.8031 269° West 417 480 33,700 780 Climbing Chicago Center
07:04PM 41.8097 -90.9492 259° West 402 463 34,000 120 Climbing Chicago Center
07:05PM 41.7856 -91.1258 260° West 403 464 34,000  Level Chicago Center
07:06PM 41.7633 -91.2781 259° West 412 474 34,000  Level Chicago Center
07:07PM 41.7422 -91.4283 259° West 414 476 34,000  Level Chicago Center
07:08PM 41.7208 -91.5769 259° West 414 476 34,000  Level Chicago Center
07:09PM 41.6994 -91.7253 259° West 409 471 34,000  Level Chicago Center
07:10PM 41.6733 -91.9031 259° West 409 471 34,000  Level Chicago Center
07:11PM 41.6508 -92.0517 259° West 411 473 34,000  Level Chicago Center
07:12PM 41.6292 -92.1997 259° West 409 471 34,000  Level Chicago Center
07:13PM 41.6075 -92.3478 259° West 408 470 34,000  Level Chicago Center
07:14PM 41.5856 -92.4939 259° West 406 467 34,000  Level Chicago Center
07:15PM 41.5622 -92.6406 258° West 407 468 34,000  Level Chicago Center
07:16PM 41.5461 -92.7519 259° West 409 471 34,000  Level Minneapolis Center
07:17PM 41.5222 -92.9000 258° West 411 473 34,000  Level Minneapolis Center
07:18PM 41.4992 -93.0478 258° West 412 474 34,000  Level Minneapolis Center
07:19PM 41.4719 -93.2217 258° West 407 468 34,000  Level Minneapolis Center
07:20PM 41.4486 -93.3669 258° West 406 467 34,000  Level Minneapolis Center
07:21PM 41.4261 -93.5097 258° West 402 463 34,000  Level Minneapolis Center
07:22PM 41.4028 -93.6517 258° West 398 458 34,000  Level Minneapolis Center
07:23PM 41.3803 -93.7947 258° West 399 459 34,000  Level Minneapolis Center
07:24PM 41.3506 -93.9694 257° West 403 464 34,000  Level Minneapolis Center
07:25PM 41.3242 -94.1169 257° West 409 471 34,000  Level Minneapolis Center
07:26PM 41.3011 -94.2589 258° West 406 467 34,000  Level Minneapolis Center
07:27PM 41.2789 -94.4042 259° West 402 463 34,000  Level Minneapolis Center
07:28PM 41.2539 -94.5494 257° West 403 464 34,000 -1,200 Level Minneapolis Center
07:29PM 41.2242 -94.7244 257° West 405 466 31,600 -2,220 Descending Minneapolis Center
07:30PM 41.1981 -94.8733 257° West 410 472 29,500 -2,040 Descending Minneapolis Center
07:31PM 41.1706 -95.0267 257° West 421 484 27,400 -2,100 Descending Minneapolis Center
07:32PM 41.1531 -95.1717 261° West 431 496 25,500 -2,160 Descending Minneapolis Center
07:33PM 41.1275 -95.3106 256° West 417 480 23,500 -2,040 Descending Minneapolis Center
07:33PM 41.1156 -95.3297 230° Southwest 420 483 23,200 -1,980 Descending Minneapolis Center
07:34PM 41.0997 -95.4525 260° West 401 461 21,500 -2,040 Descending Minneapolis Center
07:34PM 41.0908 -95.4750 242° Southwest 409 471 21,100 -2,220 Descending Minneapolis Center
07:35PM 41.0717 -95.5914 258° West 381 438 19,300 -2,100 Descending Minneapolis Center
07:35PM 41.0650 -95.6125 247° West 391 450 19,000 -2,040 Descending Minneapolis Center
07:36PM 41.0486 -95.7131 258° West 372 428 17,500 -1,980 Descending Minneapolis Center
07:36PM 41.0408 -95.7458 253° West 376 433 17,000 -2,100 Descending Minneapolis Center
07:37PM 41.0219 -95.8461 256° West 363 418 15,400 -2,040 Descending Minneapolis Center
07:37PM 41.0158 -95.8764 255° West 367 422 14,900 -1,200 Descending Minneapolis Center
07:38PM 40.9936 -95.9847 255° West 344 396 14,100 -900 Descending Minneapolis Center
07:38PM 40.9886 -96.0258 261° West 351 404 14,000 -1,140 Descending Minneapolis Center
07:39PM 40.9719 -96.1031 254° West 325 374 13,000 -1,680 Descending Minneapolis Center
07:39PM 40.9700 -96.1436 266° West 333 383 12,300 -1,980 Descending Minneapolis Center
07:40PM 40.9647 -96.2169 265° West 311 358 11,000 -1,800 Descending Minneapolis Center
07:41PM 40.9664 -96.2569 273° West 312 359 10,500 -1,680 Descending Minneapolis Center
07:41PM 40.9586 -96.3197 261° West 245 282 9,300 -1,800 Descending Minneapolis Center
07:42PM 40.9633 -96.3506 281° West 269 310 8,700 -1,860 Descending Minneapolis Center
07:42PM 40.9542 -96.4169 260° West 245 282 7,300 -1,920 Descending Minneapolis Center
07:43PM 40.9608 -96.4408 290° West 249 287 6,800 -1,920 Descending Minneapolis Center
07:43PM 40.9622 -96.5125 271° West 260 299 5,400 -1,680 Descending Minneapolis Center
07:44PM 40.9700 -96.5364 293° West 256 295 5,100 -1,620 Descending Minneapolis Center
07:44PM 40.9550 -96.6044 254° West 248 285 3,800 -1,560 Descending Minneapolis Center
07:45PM 40.9656 -96.6306 298° West 257 296 3,500 -900 Descending Minneapolis Center
07:45PM 40.9503 -96.6958 253° West 230 265 2,900 -600 Descending Minneapolis Center
07:46PM 40.9597 -96.7167 301° West 249 287 2,900 -240 Level Minneapolis Center
07:46PM 40.9200 -96.7542 216° Southwest 156 180 2,700 -420 Descending Minneapolis Center
07:47PM 40.9269 -96.7608 324° Northwest 195 224 2,500 -720 Descending Minneapolis Center
07:47PM 40.8847 -96.7578 177° South 124 143 2,000 -780 Descending Minneapolis Center
07:48PM 40.8847 -96.7611 270° West 146 168 1,700 -300 Descending Minneapolis Center
07:49PM 40.8511 -96.7622 181° South 141 162 1,600 -120 Descending Minneapolis Center